Shell Point, Louisiana
Current Conditions -  °F | °C
As of 6:35 PM on Monday 22 Dec 2014 (Local Time) from KIER Reporting Station
Clear Clear  
Wind Chill: 65°   Ceiling: Unl
Heat Index: 65°   Visibility: 10mi
Dew Point: 59°   Wind: 5mph
Humidity: 82%   Direction: 210°SSW
Pressure: 29.62"   Gusts: NA
Location:  31.6668°N, 92.8023°W
Report Text: KIER 230035Z AUTO 21004KT 10SM CLR 18/15 A2962 RMK AO2 T01830151
Loading
Personal Weather Stations






























Interactive Weather Map New forecast layout! Learn more

10-Day Weather Forecast

Advertisements
Track Severe Weather on mobile